Corpus Christi Naval Air Station/Truax Field
KNGP : now visible

Airfield :











YOU CAN JOIN US ON...

 
LOGIN :

Register | Disclaimer

   EN    FR    IT 

 









Legend :    VFR   Marginal VFR   IFR   Intensive IFR   Very Intensive IFR
Visi :
Ceiling :
>= 8 km
>= 3000ft
5 to 8 km
1000 to 3000 ft
1500m to 5 km
500 to 1000 ft
800 to 1500m
200 to 500 ft
< 800m
< 200 ft
Symbols :   Thunderstorms  Fog  Heavy snow  Heavy precipitations  Wind > 20 kt







- Airport Elevation : 18 ft


KNGP - Corpus Christi Naval Air Station/Truax Field

CURRENT METAR :
  • 230956Z AUTO 13016KT 6SM BR BKN006 24/23 A2991 RMK AO2 SLP128 T02440233 $

EXPIRED METARs :
  • 230856Z AUTO 13014KT 7SM OVC006 25/23 A2993 RMK AO2 CIG 005V010 SLP136 T02500233 56015 $
  • 230839Z AUTO 13011G19KT 7SM BKN008 OVC013 25/23 A2994 RMK AO2 T02500233 $
  • 230831Z AUTO 13014KT 7SM SCT008 OVC013 25/23 A2994 RMK AO2 T02500233 $
  • 230756Z AUTO 13015KT 7SM OVC007 25/23 A2994 RMK AO2 CIG 006V014 SLP139 T02500233 $

TAF AMD TAF KNGP
Valid from the 23 at 09:00 until the 24 at 07:00 UTC


2309/2407 13013G23KT 9000 BR BKN008 BKN025 OVC250 QNH2987INS
TEMPO 2309/2314 13011G21KT 6000 BR BKN005 OVC012
BECMG 2317/2319 13019G27KT 9999 VCSH FEW030 BKN050 BKN100 OVC250 510005 QNH2984INS
TEMPO 2319/2400 8000 SHRA BKN025 BKN040 OVC080
BECMG 2405/2407 15010G20KT 9999 NSW FEW030 SCT060 BKN120 BKN250 500000 QNH2978INS AUTOMATED SENSOR METWATCH 2307 TIL 2311 T22/2311Z T26/2321Z AMD 0909 FN00210
KZHU FIR / North America



MET'MAP, your aeronautical weather chart ! - Copyright ORBIFLY December 2007 - Disclaimer

ORBIFLY MET'MAP TEAM :

Programming & Development : Alexandra Zaïnal
Concept & Development : Baudouin d'Aumeries
Co-Development & Prog : Marc-Olivier Méhu
Technical & hardware support : Manuel Goepfert

Contact : metmap@orbifly.com




SOURCES & CREDITS :

   NOAA       Earth
Advisory